createdAt,value
2018-12-04T00:01:56.466Z,2.00
2018-12-04T00:04:26.706Z,2.20
2018-12-04T00:06:57.003Z,0.90
2018-12-04T00:09:27.351Z,0.90
2018-12-04T00:11:59.343Z,1.50
2018-12-04T00:14:29.575Z,1.37
2018-12-04T00:16:59.875Z,1.63
2018-12-04T00:19:30.155Z,1.13
2018-12-04T00:22:00.482Z,2.40
2018-12-04T00:24:30.679Z,0.70
2018-12-04T00:27:01.160Z,1.07
2018-12-04T00:29:31.635Z,1.53
2018-12-04T00:32:01.831Z,0.93
2018-12-04T00:34:32.177Z,0.60
2018-12-04T00:37:02.515Z,0.90
2018-12-04T00:39:32.812Z,1.20
2018-12-04T00:42:03.563Z,4.50
2018-12-04T00:44:33.981Z,0.80
2018-12-04T00:47:05.556Z,1.10
2018-12-04T00:49:35.966Z,0.70
2018-12-04T00:52:06.462Z,1.40
2018-12-04T00:54:36.787Z,0.97
2018-12-04T00:57:07.139Z,1.00
2018-12-04T00:59:37.578Z,2.27
2018-12-04T01:02:07.801Z,1.27
2018-12-04T01:04:38.004Z,1.20
2018-12-04T01:07:08.458Z,0.60
2018-12-04T01:09:38.671Z,1.53
2018-12-04T01:12:09.187Z,2.40
2018-12-04T01:14:39.636Z,2.00
2018-12-04T01:17:10.058Z,2.60
2018-12-04T01:19:40.378Z,3.27
2018-12-04T01:22:10.587Z,0.70
2018-12-04T01:24:40.891Z,1.43
2018-12-04T01:27:11.132Z,3.10
2018-12-04T01:29:41.504Z,0.90
2018-12-04T01:32:11.884Z,5.23
2018-12-04T01:34:42.541Z,3.20
2018-12-04T01:37:12.959Z,1.87
2018-12-04T01:39:43.474Z,2.10
2018-12-04T01:42:14.734Z,1.57
2018-12-04T01:44:45.030Z,1.57
2018-12-04T01:47:15.470Z,0.90
2018-12-04T01:49:45.814Z,3.43
2018-12-04T01:52:16.513Z,4.33
2018-12-04T01:54:46.734Z,1.53
2018-12-04T01:57:17.124Z,3.53
2018-12-04T01:59:47.357Z,2.77
2018-12-04T02:02:17.720Z,4.10
2018-12-04T02:04:48.137Z,3.47
2018-12-04T02:07:18.420Z,2.90
2018-12-04T02:09:48.682Z,1.23
2018-12-04T02:12:19.018Z,1.97
2018-12-04T02:14:49.606Z,1.20
2018-12-04T02:17:20.110Z,2.20
2018-12-04T02:19:50.492Z,1.80
2018-12-04T02:22:20.822Z,3.07
2018-12-04T02:24:50.992Z,3.80
2018-12-04T02:27:21.286Z,2.60
2018-12-04T02:29:51.460Z,0.63
2018-12-04T02:32:21.686Z,0.83
2018-12-04T02:34:51.955Z,0.90
2018-12-04T02:37:22.208Z,1.03
2018-12-04T02:39:52.616Z,1.13
2018-12-04T02:42:26.012Z,0.80
2018-12-04T02:44:56.350Z,1.23
2018-12-04T02:47:26.738Z,1.37
2018-12-04T02:49:57.008Z,0.80
2018-12-04T02:52:27.280Z,8.57
2018-12-04T02:54:57.548Z,1.50
2018-12-04T02:57:27.792Z,1.50
2018-12-04T02:59:58.316Z,2.43
2018-12-04T03:02:28.608Z,1.83
2018-12-04T03:04:58.794Z,1.50
2018-12-04T03:07:29.171Z,0.90
2018-12-04T03:09:59.388Z,2.97
2018-12-04T03:12:29.620Z,1.33
2018-12-04T03:14:59.937Z,2.37
2018-12-04T03:17:30.187Z,2.23
2018-12-04T03:20:00.766Z,0.93
2018-12-04T03:22:31.141Z,1.13
2018-12-04T03:25:01.314Z,2.40
2018-12-04T03:27:31.650Z,2.40
2018-12-04T03:30:03.606Z,1.03
2018-12-04T03:32:34.262Z,1.80
2018-12-04T03:35:05.138Z,2.13
2018-12-04T03:37:35.345Z,0.70
2018-12-04T03:40:08.228Z,1.07
2018-12-04T03:42:38.524Z,0.93
2018-12-04T03:45:10.400Z,0.67
2018-12-04T03:47:40.863Z,0.67
2018-12-04T03:50:11.108Z,1.20
2018-12-04T03:52:41.435Z,4.20
2018-12-04T03:55:11.733Z,1.47
2018-12-04T03:57:42.210Z,1.90
2018-12-04T04:00:12.690Z,1.63
2018-12-04T04:02:42.952Z,1.93
2018-12-04T04:05:13.246Z,0.70
2018-12-04T04:07:43.539Z,4.50
2018-12-04T04:10:13.810Z,2.67
2018-12-04T04:12:44.130Z,2.30
2018-12-04T04:15:14.319Z,1.17
2018-12-04T04:17:44.690Z,2.93
2018-12-04T04:20:14.999Z,3.43
2018-12-04T04:22:45.347Z,1.23
2018-12-04T04:25:16.427Z,1.33
2018-12-04T04:27:46.793Z,1.37
2018-12-04T04:30:17.016Z,1.10
2018-12-04T04:32:47.368Z,1.33
2018-12-04T04:35:19.610Z,2.53
2018-12-04T04:37:49.832Z,3.07
2018-12-04T04:40:20.150Z,1.30
2018-12-04T04:42:50.386Z,3.90
2018-12-04T04:45:20.582Z,4.80
2018-12-04T04:47:50.922Z,0.80
2018-12-04T04:50:21.247Z,0.63
2018-12-04T04:52:51.617Z,3.93
2018-12-04T04:55:21.902Z,1.87
2018-12-04T04:57:52.438Z,0.60
2018-12-04T05:00:22.799Z,1.37
2018-12-04T05:02:53.130Z,0.80
2018-12-04T05:05:23.379Z,0.60
2018-12-04T05:07:53.739Z,0.70
2018-12-04T05:10:24.241Z,0.83
2018-12-04T05:12:54.836Z,0.70
2018-12-04T05:15:25.187Z,2.60
2018-12-04T05:17:55.653Z,0.90
2018-12-04T05:20:27.104Z,3.27
2018-12-04T05:22:57.627Z,0.90
2018-12-04T05:25:27.977Z,3.73
2018-12-04T05:27:58.262Z,0.93
2018-12-04T05:30:28.543Z,0.70
2018-12-04T05:32:59.179Z,2.93
2018-12-04T05:35:29.384Z,1.23
2018-12-04T05:37:59.651Z,0.70
2018-12-04T05:40:29.939Z,0.70
2018-12-04T05:43:00.167Z,2.20
2018-12-04T05:45:30.488Z,1.83
2018-12-04T05:48:00.759Z,4.40
2018-12-04T05:50:31.139Z,1.50
2018-12-04T05:53:18.257Z,1.40
2018-12-04T05:55:48.576Z,1.33
2018-12-04T05:58:18.943Z,2.30
2018-12-04T06:00:50.367Z,3.00
2018-12-04T06:03:20.599Z,0.80
2018-12-04T06:05:50.856Z,1.93
2018-12-04T06:08:21.222Z,2.10
2018-12-04T06:10:51.442Z,4.50
2018-12-04T06:13:21.848Z,0.80
2018-12-04T06:15:52.058Z,2.40
2018-12-04T06:18:22.435Z,2.47
2018-12-04T06:20:52.738Z,1.00
2018-12-04T06:23:23.073Z,0.70
2018-12-04T06:25:53.388Z,2.20
2018-12-04T06:28:23.727Z,0.80
2018-12-04T06:30:54.027Z,0.70
2018-12-04T06:33:24.346Z,1.23
2018-12-04T06:35:54.676Z,0.87
2018-12-04T06:38:24.898Z,2.97
2018-12-04T06:40:55.205Z,1.10
2018-12-04T06:43:25.450Z,1.13
2018-12-04T06:45:55.662Z,1.00
2018-12-04T06:48:26.103Z,1.43
2018-12-04T06:50:56.382Z,0.70
2018-12-04T06:53:26.650Z,1.63
2018-12-04T06:55:56.827Z,1.80
2018-12-04T06:58:27.269Z,0.80
2018-12-04T07:00:57.508Z,1.47
2018-12-04T07:03:27.855Z,0.83
2018-12-04T07:05:58.563Z,1.03
2018-12-04T07:08:29.157Z,3.20
2018-12-04T07:10:59.421Z,1.43
2018-12-04T07:13:29.844Z,1.17
2018-12-04T07:16:00.229Z,2.17
2018-12-04T07:18:31.385Z,0.80
2018-12-04T07:21:01.623Z,5.63
2018-12-04T07:23:32.060Z,4.80
2018-12-04T07:26:02.562Z,0.80
2018-12-04T07:28:32.791Z,0.80
2018-12-04T07:31:03.018Z,2.33
2018-12-04T07:33:33.500Z,1.40
2018-12-04T07:36:03.957Z,1.20
2018-12-04T07:38:34.189Z,3.70
2018-12-04T07:41:04.602Z,2.30
2018-12-04T07:43:34.969Z,1.47
2018-12-04T07:46:05.126Z,1.87
2018-12-04T07:48:35.667Z,2.10
2018-12-04T07:51:05.917Z,0.70
2018-12-04T07:53:36.343Z,1.93
2018-12-04T07:56:06.665Z,4.53
2018-12-04T07:58:37.038Z,1.17
2018-12-04T08:01:07.440Z,3.47
2018-12-04T08:03:37.777Z,2.03
2018-12-04T08:06:11.013Z,0.90
2018-12-04T08:08:41.402Z,1.67
2018-12-04T08:11:11.758Z,1.10
2018-12-04T08:13:41.951Z,0.83
2018-12-04T08:16:12.403Z,2.03
2018-12-04T08:18:42.660Z,0.90
2018-12-04T08:21:13.068Z,3.00
2018-12-04T08:23:43.759Z,0.90
2018-12-04T08:26:14.146Z,3.03
2018-12-04T08:28:44.369Z,2.60
2018-12-04T08:31:14.586Z,5.43
2018-12-04T08:33:44.958Z,2.90
2018-12-04T08:36:15.248Z,6.17
2018-12-04T08:38:45.614Z,2.83
2018-12-04T08:41:15.843Z,1.00
2018-12-04T08:43:46.099Z,2.83
2018-12-04T08:46:16.299Z,2.33
2018-12-04T08:48:46.689Z,6.70
2018-12-04T08:51:17.158Z,4.70
2018-12-04T08:53:47.383Z,1.40
2018-12-04T08:56:17.791Z,0.70
2018-12-04T09:01:27.269Z,1.57
2018-12-04T09:03:59.290Z,1.67
2018-12-04T09:06:33.716Z,1.83
2018-12-04T09:09:07.053Z,1.30
2018-12-04T09:11:39.287Z,0.80
2018-12-04T09:14:09.708Z,2.60
2018-12-04T09:16:40.062Z,3.53
2018-12-04T09:19:10.545Z,5.47
2018-12-04T09:21:41.000Z,2.20
2018-12-04T09:24:11.478Z,1.33
2018-12-04T09:26:41.981Z,0.90
2018-12-04T09:29:12.496Z,4.40
2018-12-04T09:31:43.113Z,1.40
2018-12-04T09:34:13.715Z,3.13
2018-12-04T09:36:45.587Z,6.70
2018-12-04T09:39:15.947Z,2.10
2018-12-04T09:41:46.262Z,1.73
2018-12-04T09:44:16.624Z,3.27
2018-12-04T09:46:47.122Z,3.90
2018-12-04T09:49:17.531Z,1.30
2018-12-04T09:51:48.067Z,4.30
2018-12-04T09:54:18.514Z,2.07
2018-12-04T09:56:49.008Z,1.40
2018-12-04T09:59:19.399Z,5.10
2018-12-04T10:01:49.789Z,1.20
2018-12-04T10:04:19.984Z,1.80
2018-12-04T10:06:50.310Z,3.43
2018-12-04T10:09:20.641Z,12.87
2018-12-04T10:11:51.044Z,2.37
2018-12-04T10:14:21.393Z,1.40
2018-12-04T10:16:51.729Z,1.67
2018-12-04T10:19:22.036Z,1.27
2018-12-04T10:21:52.441Z,4.50
2018-12-04T10:24:22.820Z,0.90
2018-12-04T10:26:57.467Z,1.20
2018-12-04T10:29:28.053Z,1.63
2018-12-04T10:31:58.556Z,1.53
2018-12-04T10:34:29.018Z,0.60
2018-12-04T10:36:59.430Z,3.00
2018-12-04T10:39:29.652Z,1.50
2018-12-04T10:42:00.017Z,0.97
2018-12-04T10:44:30.372Z,1.13
2018-12-04T10:47:00.574Z,1.53
2018-12-04T10:49:32.020Z,1.57
2018-12-04T10:52:02.364Z,2.50
2018-12-04T10:54:32.794Z,3.13
2018-12-04T10:57:03.301Z,1.30
2018-12-04T10:59:33.767Z,1.63
2018-12-04T11:02:09.280Z,2.13
2018-12-04T11:04:39.634Z,1.60
2018-12-04T11:07:09.943Z,2.60
2018-12-04T11:09:40.284Z,4.17
2018-12-04T11:12:12.368Z,1.17
2018-12-04T11:14:42.953Z,1.87
2018-12-04T11:17:13.295Z,1.57
2018-12-04T11:19:43.654Z,1.00
2018-12-04T11:22:13.964Z,0.77
2018-12-04T11:24:44.350Z,1.30
2018-12-04T11:27:14.780Z,0.70
2018-12-04T11:29:45.307Z,0.70
2018-12-04T11:32:15.801Z,1.07
2018-12-04T11:34:46.288Z,1.20
2018-12-04T11:37:16.567Z,1.00
2018-12-04T11:39:46.837Z,10.63
2018-12-04T11:42:17.226Z,1.33
2018-12-04T11:44:48.615Z,1.23
2018-12-04T11:47:19.721Z,0.80
2018-12-04T11:49:50.172Z,1.30
2018-12-04T11:52:20.601Z,0.70
2018-12-04T11:54:51.134Z,3.27
2018-12-04T11:57:22.453Z,0.70
2018-12-04T11:59:52.915Z,0.90
2018-12-04T12:02:23.215Z,1.00
2018-12-04T12:04:53.527Z,1.37
2018-12-04T12:07:25.983Z,1.47
2018-12-04T12:09:56.177Z,1.10
2018-12-04T12:12:26.428Z,1.87
2018-12-04T12:14:56.685Z,4.13
2018-12-04T12:17:27.121Z,3.33
2018-12-04T12:19:57.538Z,1.40
2018-12-04T12:22:27.930Z,1.40
2018-12-04T12:24:58.326Z,1.30
2018-12-04T12:27:28.694Z,1.13
2018-12-04T12:29:59.218Z,1.97
2018-12-04T12:32:29.780Z,1.83
2018-12-04T12:35:00.094Z,1.07
2018-12-04T12:37:30.497Z,0.70
2018-12-04T12:40:00.943Z,2.00
2018-12-04T12:42:31.527Z,2.50
2018-12-04T12:45:01.891Z,2.30
2018-12-04T12:47:34.444Z,3.60
2018-12-04T12:50:06.160Z,0.90
2018-12-04T12:52:36.409Z,1.70
2018-12-04T12:55:07.388Z,1.43
2018-12-04T12:57:37.693Z,2.30
2018-12-04T13:00:10.295Z,0.93
2018-12-04T13:02:41.514Z,2.20
2018-12-04T13:05:11.940Z,0.90
2018-12-04T13:07:42.372Z,1.37
2018-12-04T13:10:12.713Z,1.00
2018-12-04T13:12:43.090Z,1.30
2018-12-04T13:15:13.336Z,0.70
2018-12-04T13:17:43.753Z,0.70
2018-12-04T13:20:14.174Z,0.80
2018-12-04T13:22:44.412Z,2.93
2018-12-04T13:25:14.845Z,1.90
2018-12-04T13:27:45.134Z,5.30
2018-12-04T13:30:15.495Z,4.40
2018-12-04T13:32:46.944Z,4.43
2018-12-04T13:35:17.243Z,1.13
2018-12-04T13:37:47.473Z,2.63
2018-12-04T13:40:17.750Z,4.40
2018-12-04T13:42:48.001Z,3.37
2018-12-04T13:45:18.606Z,1.10
2018-12-04T13:47:48.842Z,1.63
2018-12-04T13:50:19.182Z,3.70
2018-12-04T13:52:49.521Z,1.30
2018-12-04T13:55:19.874Z,1.30
2018-12-04T13:57:50.817Z,1.03
2018-12-04T14:00:21.599Z,3.70
2018-12-04T14:02:52.118Z,2.67
2018-12-04T14:05:22.479Z,1.93
2018-12-04T14:07:52.779Z,1.27
2018-12-04T14:10:23.171Z,1.70
2018-12-04T14:12:53.525Z,0.80
2018-12-04T14:15:23.767Z,1.37
2018-12-04T14:17:53.965Z,1.20
2018-12-04T14:20:24.434Z,3.13
2018-12-04T14:22:54.904Z,3.17
2018-12-04T14:25:25.107Z,1.67
2018-12-04T14:27:55.382Z,2.60
2018-12-04T14:30:25.801Z,3.43
2018-12-04T14:32:56.164Z,1.20
2018-12-04T14:35:26.465Z,4.80
2018-12-04T14:37:58.098Z,3.33
2018-12-04T14:40:28.457Z,2.73
2018-12-04T14:42:58.727Z,3.20
2018-12-04T14:45:29.301Z,1.90
2018-12-04T14:47:59.760Z,1.43
2018-12-04T14:50:30.415Z,1.30
2018-12-04T14:53:00.862Z,1.50
2018-12-04T14:55:31.688Z,2.50
2018-12-04T14:58:01.953Z,4.53
2018-12-04T15:00:32.472Z,1.53
2018-12-04T15:03:03.213Z,2.47
2018-12-04T15:05:33.722Z,1.43
2018-12-04T15:08:04.150Z,1.33
2018-12-04T15:10:34.691Z,2.30
2018-12-04T15:13:05.337Z,3.70
2018-12-04T15:15:35.772Z,1.43
2018-12-04T15:18:06.076Z,1.57
2018-12-04T15:20:36.459Z,1.43
2018-12-04T15:23:07.008Z,5.13
2018-12-04T15:25:37.478Z,1.70
2018-12-04T15:28:07.988Z,2.03
2018-12-04T15:30:38.686Z,2.30
2018-12-04T15:33:09.196Z,2.00
2018-12-04T15:35:39.526Z,1.53
2018-12-04T15:38:10.234Z,1.97
2018-12-04T15:40:40.582Z,4.10
2018-12-04T15:43:10.922Z,2.73
2018-12-04T15:45:41.351Z,2.60
2018-12-04T15:48:11.694Z,2.83
2018-12-04T15:50:42.010Z,2.90
2018-12-04T15:53:12.448Z,3.20
2018-12-04T15:55:44.255Z,2.53
2018-12-04T15:58:14.694Z,4.30
2018-12-04T16:00:44.917Z,5.13
2018-12-04T16:03:15.302Z,3.13
2018-12-04T16:05:45.565Z,3.33
2018-12-04T16:08:15.983Z,3.90
2018-12-04T16:10:46.226Z,5.33
2018-12-04T16:13:16.803Z,8.73
2018-12-04T16:15:47.374Z,5.10
2018-12-04T16:18:17.668Z,3.73
2018-12-04T16:20:48.761Z,4.10
2018-12-04T16:23:19.241Z,3.77
2018-12-04T16:25:49.683Z,5.93
2018-12-04T16:28:20.009Z,7.40
2018-12-04T16:30:50.363Z,3.50
2018-12-04T16:33:21.786Z,3.60
2018-12-04T16:35:52.190Z,3.30
2018-12-04T16:38:22.436Z,3.53
2018-12-04T16:40:52.815Z,4.00
2018-12-04T16:43:23.205Z,2.50
2018-12-04T16:45:53.759Z,3.03
2018-12-04T16:48:24.189Z,3.47
2018-12-04T16:50:54.603Z,3.03
2018-12-04T16:53:25.001Z,3.47
2018-12-04T16:55:55.885Z,3.20
2018-12-04T16:58:26.230Z,3.93
2018-12-04T17:00:56.715Z,2.67
2018-12-04T17:03:27.073Z,3.70
2018-12-04T17:05:57.333Z,2.60
2018-12-04T17:08:27.733Z,7.50
2018-12-04T17:10:58.070Z,5.00
2018-12-04T17:13:28.487Z,6.37
2018-12-04T17:15:59.165Z,4.83
2018-12-04T17:18:37.499Z,2.50
2018-12-04T17:21:03.023Z,2.50
2018-12-04T17:23:34.261Z,5.67
2018-12-04T17:26:04.793Z,3.20
2018-12-04T17:28:35.125Z,6.87
2018-12-04T17:31:05.369Z,4.83
2018-12-04T17:33:36.300Z,5.90
2018-12-04T17:36:06.747Z,3.70
2018-12-04T17:38:37.216Z,5.10
2018-12-04T17:41:07.455Z,3.73
2018-12-04T17:43:39.138Z,5.53
2018-12-04T17:46:09.447Z,11.73
2018-12-04T17:48:39.882Z,4.53
2018-12-04T17:51:10.591Z,5.67
2018-12-04T17:53:42.251Z,4.70
2018-12-04T17:56:14.684Z,4.83
2018-12-04T17:58:44.949Z,8.40
2018-12-04T18:01:15.259Z,7.83
2018-12-04T18:03:47.478Z,7.10
2018-12-04T18:06:17.901Z,8.27
2018-12-04T18:08:48.294Z,5.70
2018-12-04T18:11:20.658Z,7.33
2018-12-04T18:13:52.747Z,10.60
2018-12-04T18:16:23.185Z,8.37
2018-12-04T18:18:53.571Z,10.47
2018-12-04T18:21:23.914Z,4.43
2018-12-04T18:23:55.641Z,5.33
2018-12-04T18:26:33.333Z,3.97
2018-12-04T18:29:05.511Z,9.10
2018-12-04T18:31:35.966Z,6.57
2018-12-04T18:34:06.229Z,10.97
2018-12-04T18:36:36.436Z,4.60
2018-12-04T18:39:08.890Z,8.70
2018-12-04T18:41:40.880Z,8.30
2018-12-04T18:44:14.191Z,5.80
2018-12-04T18:46:44.534Z,5.50
2018-12-04T18:49:14.786Z,4.97
2018-12-04T18:51:45.455Z,8.57
2018-12-04T18:54:15.982Z,5.30
2018-12-04T18:56:46.243Z,6.20
2018-12-04T18:59:16.786Z,10.17
2018-12-04T19:01:47.291Z,8.07
2018-12-04T19:04:17.535Z,5.23
2018-12-04T19:06:47.785Z,5.00
2018-12-04T19:09:18.247Z,7.13
2018-12-04T19:11:48.490Z,3.83
2018-12-04T19:14:18.709Z,4.27
2018-12-04T19:16:49.033Z,4.43
2018-12-04T19:19:19.270Z,4.90
2018-12-04T19:21:49.729Z,5.10
2018-12-04T19:24:19.904Z,2.83
2018-12-04T19:29:29.843Z,3.30
2018-12-04T19:32:00.463Z,8.60
2018-12-04T19:34:30.929Z,3.80
2018-12-04T19:37:01.344Z,6.03
2018-12-04T19:39:31.863Z,4.73
2018-12-04T19:42:02.251Z,4.10
2018-12-04T19:44:32.830Z,3.47
2018-12-04T19:47:03.500Z,7.00
2018-12-04T19:49:34.023Z,5.97
2018-12-04T19:52:04.710Z,3.60
2018-12-04T19:54:35.351Z,4.80
2018-12-04T19:57:05.907Z,3.63
2018-12-04T19:59:36.516Z,8.23
2018-12-04T20:02:07.038Z,6.00
2018-12-04T20:04:37.772Z,8.43
2018-12-04T20:07:08.530Z,9.57
2018-12-04T20:09:39.238Z,10.30
2018-12-04T20:12:09.872Z,13.40
2018-12-04T20:14:40.486Z,10.67
2018-12-04T20:17:11.021Z,10.80
2018-12-04T20:19:41.269Z,16.30
2018-12-04T20:22:12.037Z,11.07
2018-12-04T20:24:43.529Z,10.33
2018-12-04T20:27:14.585Z,13.23
2018-12-04T20:29:44.907Z,12.50
2018-12-04T20:32:15.268Z,8.67
2018-12-04T20:34:45.639Z,8.83
2018-12-04T20:37:18.028Z,9.20
2018-12-04T20:39:48.553Z,6.40
2018-12-04T20:42:23.228Z,17.30
2018-12-04T20:44:51.867Z,8.97
2018-12-04T20:47:22.088Z,5.80
2018-12-04T20:49:52.508Z,10.07
2018-12-04T20:52:22.743Z,9.70
2018-12-04T20:54:53.070Z,6.90
2018-12-04T20:57:23.514Z,6.03
2018-12-04T20:59:53.790Z,10.60
2018-12-04T21:02:24.298Z,7.97
2018-12-04T21:04:55.681Z,14.20
2018-12-04T21:07:27.261Z,8.90
2018-12-04T21:09:57.789Z,12.20
2018-12-04T21:12:28.716Z,10.30
2018-12-04T21:14:59.409Z,12.97
2018-12-04T21:17:29.818Z,13.37
2018-12-04T21:20:00.074Z,14.50
2018-12-04T21:22:30.532Z,15.90
2018-12-04T21:25:00.731Z,15.50
2018-12-04T21:27:36.182Z,19.37
2018-12-04T21:30:12.425Z,10.37
2018-12-04T21:32:48.067Z,9.50
2018-12-04T21:35:23.494Z,10.00
2018-12-04T21:37:59.017Z,9.30
2018-12-04T21:40:34.647Z,8.63
2018-12-04T21:43:11.030Z,11.30
2018-12-04T21:45:46.400Z,11.23
2018-12-04T21:48:16.855Z,12.30
2018-12-04T21:50:47.190Z,12.60
2018-12-04T21:53:17.528Z,11.03
2018-12-04T21:55:47.909Z,14.10
2018-12-04T21:58:24.385Z,10.53
2018-12-04T22:00:54.841Z,10.30
2018-12-04T22:03:25.180Z,26.27
2018-12-04T22:05:55.654Z,8.37
2018-12-04T22:08:26.011Z,9.73
2018-12-04T22:10:56.320Z,7.97
2018-12-04T22:13:26.758Z,10.47
2018-12-04T22:15:57.037Z,9.87
2018-12-04T22:18:27.465Z,11.27
2018-12-04T22:20:57.743Z,13.20
2018-12-04T22:23:28.038Z,16.23
2018-12-04T22:25:58.457Z,23.40
2018-12-04T22:28:28.914Z,16.73
2018-12-04T22:30:59.185Z,15.37
2018-12-04T22:33:29.435Z,20.70
2018-12-04T22:35:59.839Z,24.97
2018-12-04T22:38:30.201Z,17.30
2018-12-04T22:41:00.679Z,23.30
2018-12-04T22:43:30.904Z,18.63
2018-12-04T22:46:01.325Z,19.97
2018-12-04T22:48:31.557Z,15.00
2018-12-04T22:51:01.812Z,14.80
2018-12-04T22:53:32.206Z,15.73
2018-12-04T22:56:02.532Z,14.60
2018-12-04T22:58:32.815Z,19.03
2018-12-04T23:01:03.666Z,12.23
2018-12-04T23:03:35.869Z,15.13
2018-12-04T23:06:06.181Z,16.07
2018-12-04T23:11:23.302Z,17.67
2018-12-04T23:13:53.580Z,15.43
2018-12-04T23:16:24.313Z,14.60
2018-12-04T23:18:54.677Z,14.03
2018-12-04T23:21:25.011Z,15.30
2018-12-04T23:23:55.467Z,13.07
2018-12-04T23:26:25.967Z,14.07
2018-12-04T23:28:56.410Z,21.63
2018-12-04T23:31:26.727Z,19.63
2018-12-04T23:33:57.003Z,17.23
2018-12-04T23:36:27.277Z,17.80
2018-12-04T23:38:57.587Z,20.53
2018-12-04T23:41:27.775Z,15.17
2018-12-04T23:43:58.147Z,19.00
2018-12-04T23:46:28.545Z,15.67
2018-12-04T23:48:58.779Z,13.30
2018-12-04T23:51:28.989Z,13.93
2018-12-04T23:53:59.223Z,16.13
2018-12-04T23:56:30.594Z,16.30
2018-12-04T23:59:01.095Z,14.70
